sensor_id;sensor_type;location;lat;lon;timestamp;P1;durP1;ratioP1;P2;durP2;ratioP2
48629;SDS011;34426;52.180;4.462;2023-05-27T00:00:21;32.00;;;6.93;;
48629;SDS011;34426;52.180;4.462;2023-05-27T00:02:46;31.63;;;7.22;;
48629;SDS011;34426;52.180;4.462;2023-05-27T00:05:11;44.65;;;7.95;;
48629;SDS011;34426;52.180;4.462;2023-05-27T00:07:37;25.75;;;6.80;;
48629;SDS011;34426;52.180;4.462;2023-05-27T00:10:04;36.63;;;7.45;;
48629;SDS011;34426;52.180;4.462;2023-05-27T00:12:30;41.08;;;6.75;;
48629;SDS011;34426;52.180;4.462;2023-05-27T00:14:56;35.13;;;7.47;;
48629;SDS011;34426;52.180;4.462;2023-05-27T00:17:21;33.03;;;6.50;;
48629;SDS011;34426;52.180;4.462;2023-05-27T00:19:47;31.17;;;6.90;;
48629;SDS011;34426;52.180;4.462;2023-05-27T00:22:12;31.95;;;7.07;;
48629;SDS011;34426;52.180;4.462;2023-05-27T00:24:38;33.78;;;6.93;;
48629;SDS011;34426;52.180;4.462;2023-05-27T00:27:05;31.20;;;7.57;;
48629;SDS011;34426;52.180;4.462;2023-05-27T00:29:30;26.80;;;7.07;;
48629;SDS011;34426;52.180;4.462;2023-05-27T00:31:56;29.23;;;6.70;;
48629;SDS011;34426;52.180;4.462;2023-05-27T00:34:21;29.60;;;6.80;;
48629;SDS011;34426;52.180;4.462;2023-05-27T00:36:47;30.60;;;6.97;;
48629;SDS011;34426;52.180;4.462;2023-05-27T00:39:12;33.85;;;6.68;;
48629;SDS011;34426;52.180;4.462;2023-05-27T00:41:38;26.42;;;5.25;;
48629;SDS011;34426;52.180;4.462;2023-05-27T00:44:09;29.10;;;5.70;;
48629;SDS011;34426;52.180;4.462;2023-05-27T00:46:35;32.75;;;5.78;;
48629;SDS011;34426;52.180;4.462;2023-05-27T00:49:00;21.92;;;5.35;;
48629;SDS011;34426;52.180;4.462;2023-05-27T00:51:25;33.88;;;5.30;;
48629;SDS011;34426;52.180;4.462;2023-05-27T00:53:51;18.67;;;4.57;;
48629;SDS011;34426;52.180;4.462;2023-05-27T00:56:16;31.40;;;5.80;;
48629;SDS011;34426;52.180;4.462;2023-05-27T00:58:42;20.92;;;5.07;;
48629;SDS011;34426;52.180;4.462;2023-05-27T01:01:09;24.02;;;5.07;;
48629;SDS011;34426;52.180;4.462;2023-05-27T01:03:35;30.85;;;5.50;;
48629;SDS011;34426;52.180;4.462;2023-05-27T01:06:03;24.25;;;4.90;;
48629;SDS011;34426;52.180;4.462;2023-05-27T01:08:41;29.58;;;4.53;;
48629;SDS011;34426;52.180;4.462;2023-05-27T01:11:16;23.00;;;4.80;;
48629;SDS011;34426;52.180;4.462;2023-05-27T01:13:46;31.10;;;5.53;;
48629;SDS011;34426;52.180;4.462;2023-05-27T01:16:18;32.08;;;5.30;;
48629;SDS011;34426;52.180;4.462;2023-05-27T01:18:44;26.13;;;5.70;;
48629;SDS011;34426;52.180;4.462;2023-05-27T01:21:12;34.33;;;7.07;;
48629;SDS011;34426;52.180;4.462;2023-05-27T01:23:42;22.15;;;4.25;;
48629;SDS011;34426;52.180;4.462;2023-05-27T01:26:08;26.40;;;5.72;;
48629;SDS011;34426;52.180;4.462;2023-05-27T01:28:33;26.50;;;5.53;;
48629;SDS011;34426;52.180;4.462;2023-05-27T01:31:01;22.65;;;4.40;;
48629;SDS011;34426;52.180;4.462;2023-05-27T01:33:35;22.90;;;6.00;;
48629;SDS011;34426;52.180;4.462;2023-05-27T01:36:06;19.63;;;4.05;;
48629;SDS011;34426;52.180;4.462;2023-05-27T01:38:36;23.38;;;4.50;;
48629;SDS011;34426;52.180;4.462;2023-05-27T01:41:06;27.00;;;5.35;;
48629;SDS011;34426;52.180;4.462;2023-05-27T01:43:34;21.00;;;4.80;;
48629;SDS011;34426;52.180;4.462;2023-05-27T01:46:00;24.50;;;5.75;;
48629;SDS011;34426;52.180;4.462;2023-05-27T01:48:25;24.60;;;5.57;;
48629;SDS011;34426;52.180;4.462;2023-05-27T01:50:51;28.23;;;5.32;;
48629;SDS011;34426;52.180;4.462;2023-05-27T01:53:16;22.10;;;5.25;;
48629;SDS011;34426;52.180;4.462;2023-05-27T01:55:42;26.85;;;4.85;;
48629;SDS011;34426;52.180;4.462;2023-05-27T01:58:09;22.27;;;4.13;;
48629;SDS011;34426;52.180;4.462;2023-05-27T02:00:34;20.05;;;4.45;;
48629;SDS011;34426;52.180;4.462;2023-05-27T02:03:00;26.77;;;4.93;;
48629;SDS011;34426;52.180;4.462;2023-05-27T02:05:25;21.58;;;4.55;;
48629;SDS011;34426;52.180;4.462;2023-05-27T02:07:50;26.15;;;5.20;;
48629;SDS011;34426;52.180;4.462;2023-05-27T02:10:16;20.65;;;5.13;;
48629;SDS011;34426;52.180;4.462;2023-05-27T02:12:41;37.05;;;6.03;;
48629;SDS011;34426;52.180;4.462;2023-05-27T02:15:09;30.30;;;4.95;;
48629;SDS011;34426;52.180;4.462;2023-05-27T02:17:34;31.77;;;5.80;;
48629;SDS011;34426;52.180;4.462;2023-05-27T02:20:00;27.42;;;5.32;;
48629;SDS011;34426;52.180;4.462;2023-05-27T02:22:26;22.17;;;4.45;;
48629;SDS011;34426;52.180;4.462;2023-05-27T02:24:52;20.67;;;4.53;;
48629;SDS011;34426;52.180;4.462;2023-05-27T02:27:17;26.75;;;5.32;;
48629;SDS011;34426;52.180;4.462;2023-05-27T02:29:43;21.05;;;4.28;;
48629;SDS011;34426;52.180;4.462;2023-05-27T02:32:09;28.98;;;4.68;;
48629;SDS011;34426;52.180;4.462;2023-05-27T02:34:35;21.63;;;4.85;;
48629;SDS011;34426;52.180;4.462;2023-05-27T02:37:00;19.40;;;4.80;;
48629;SDS011;34426;52.180;4.462;2023-05-27T02:39:26;20.55;;;4.72;;
48629;SDS011;34426;52.180;4.462;2023-05-27T02:41:51;23.13;;;5.10;;
48629;SDS011;34426;52.180;4.462;2023-05-27T02:44:17;21.85;;;4.82;;
48629;SDS011;34426;52.180;4.462;2023-05-27T02:46:42;25.38;;;5.05;;
48629;SDS011;34426;52.180;4.462;2023-05-27T02:49:09;18.08;;;4.75;;
48629;SDS011;34426;52.180;4.462;2023-05-27T02:51:35;22.42;;;4.68;;
48629;SDS011;34426;52.180;4.462;2023-05-27T02:54:01;22.42;;;5.88;;
48629;SDS011;34426;52.180;4.462;2023-05-27T02:56:27;25.90;;;5.45;;
48629;SDS011;34426;52.180;4.462;2023-05-27T02:58:52;22.98;;;4.97;;
48629;SDS011;34426;52.180;4.462;2023-05-27T03:01:17;21.45;;;4.70;;
48629;SDS011;34426;52.180;4.462;2023-05-27T03:03:43;21.92;;;4.80;;
48629;SDS011;34426;52.180;4.462;2023-05-27T03:06:10;25.02;;;4.72;;
48629;SDS011;34426;52.180;4.462;2023-05-27T03:08:35;22.40;;;4.43;;
48629;SDS011;34426;52.180;4.462;2023-05-27T03:11:01;26.15;;;4.68;;
48629;SDS011;34426;52.180;4.462;2023-05-27T03:13:26;20.80;;;4.28;;
48629;SDS011;34426;52.180;4.462;2023-05-27T03:15:52;26.60;;;4.90;;
48629;SDS011;34426;52.180;4.462;2023-05-27T03:18:17;23.38;;;4.68;;
48629;SDS011;34426;52.180;4.462;2023-05-27T03:20:43;21.05;;;5.20;;
48629;SDS011;34426;52.180;4.462;2023-05-27T03:23:10;23.63;;;5.38;;
48629;SDS011;34426;52.180;4.462;2023-05-27T03:25:35;26.20;;;4.93;;
48629;SDS011;34426;52.180;4.462;2023-05-27T03:28:00;19.05;;;4.75;;
48629;SDS011;34426;52.180;4.462;2023-05-27T03:30:26;21.33;;;4.97;;
48629;SDS011;34426;52.180;4.462;2023-05-27T03:32:51;29.52;;;5.00;;
48629;SDS011;34426;52.180;4.462;2023-05-27T03:35:17;25.27;;;4.90;;
48629;SDS011;34426;52.180;4.462;2023-05-27T03:37:42;21.38;;;4.30;;
48629;SDS011;34426;52.180;4.462;2023-05-27T03:40:10;23.48;;;5.38;;
48629;SDS011;34426;52.180;4.462;2023-05-27T03:42:36;24.73;;;4.75;;
48629;SDS011;34426;52.180;4.462;2023-05-27T03:45:02;35.70;;;5.40;;
48629;SDS011;34426;52.180;4.462;2023-05-27T03:47:28;17.15;;;4.55;;
48629;SDS011;34426;52.180;4.462;2023-05-27T03:49:53;26.88;;;5.38;;
48629;SDS011;34426;52.180;4.462;2023-05-27T03:52:19;22.27;;;4.38;;
48629;SDS011;34426;52.180;4.462;2023-05-27T03:54:44;23.98;;;5.57;;
48629;SDS011;34426;52.180;4.462;2023-05-27T03:57:11;23.00;;;5.65;;
48629;SDS011;34426;52.180;4.462;2023-05-27T03:59:37;14.50;;;4.03;;
48629;SDS011;34426;52.180;4.462;2023-05-27T04:02:02;29.35;;;5.32;;
48629;SDS011;34426;52.180;4.462;2023-05-27T04:04:29;23.35;;;5.55;;
48629;SDS011;34426;52.180;4.462;2023-05-27T04:06:55;26.48;;;5.40;;
48629;SDS011;34426;52.180;4.462;2023-05-27T04:09:20;32.65;;;5.90;;
48629;SDS011;34426;52.180;4.462;2023-05-27T04:11:45;26.30;;;5.78;;
48629;SDS011;34426;52.180;4.462;2023-05-27T04:14:12;19.65;;;4.70;;
48629;SDS011;34426;52.180;4.462;2023-05-27T04:16:38;28.52;;;6.20;;
48629;SDS011;34426;52.180;4.462;2023-05-27T04:19:03;21.15;;;5.20;;
48629;SDS011;34426;52.180;4.462;2023-05-27T04:21:29;40.15;;;6.97;;
48629;SDS011;34426;52.180;4.462;2023-05-27T04:23:54;33.65;;;6.18;;
48629;SDS011;34426;52.180;4.462;2023-05-27T04:26:20;25.83;;;5.50;;
48629;SDS011;34426;52.180;4.462;2023-05-27T04:28:45;21.23;;;4.70;;
48629;SDS011;34426;52.180;4.462;2023-05-27T04:31:12;29.45;;;5.68;;
48629;SDS011;34426;52.180;4.462;2023-05-27T04:33:38;30.60;;;5.95;;
48629;SDS011;34426;52.180;4.462;2023-05-27T04:36:03;26.65;;;5.60;;
48629;SDS011;34426;52.180;4.462;2023-05-27T04:38:29;35.38;;;5.40;;
48629;SDS011;34426;52.180;4.462;2023-05-27T04:40:54;24.30;;;5.13;;
48629;SDS011;34426;52.180;4.462;2023-05-27T04:43:20;30.85;;;5.70;;
48629;SDS011;34426;52.180;4.462;2023-05-27T04:45:45;27.85;;;5.75;;
48629;SDS011;34426;52.180;4.462;2023-05-27T04:48:12;26.95;;;5.55;;
48629;SDS011;34426;52.180;4.462;2023-05-27T04:50:38;37.20;;;5.68;;
48629;SDS011;34426;52.180;4.462;2023-05-27T04:53:03;31.63;;;6.15;;
48629;SDS011;34426;52.180;4.462;2023-05-27T04:55:29;33.28;;;5.45;;
48629;SDS011;34426;52.180;4.462;2023-05-27T04:57:54;29.67;;;7.00;;
48629;SDS011;34426;52.180;4.462;2023-05-27T05:00:20;31.02;;;5.53;;
48629;SDS011;34426;52.180;4.462;2023-05-27T05:02:45;32.22;;;5.70;;
48629;SDS011;34426;52.180;4.462;2023-05-27T05:05:12;31.35;;;5.85;;
48629;SDS011;34426;52.180;4.462;2023-05-27T05:07:38;34.13;;;6.07;;
48629;SDS011;34426;52.180;4.462;2023-05-27T05:10:04;28.13;;;5.75;;
48629;SDS011;34426;52.180;4.462;2023-05-27T05:12:30;28.92;;;5.30;;
48629;SDS011;34426;52.180;4.462;2023-05-27T05:14:56;31.17;;;6.25;;
48629;SDS011;34426;52.180;4.462;2023-05-27T05:17:21;32.15;;;6.88;;
48629;SDS011;34426;52.180;4.462;2023-05-27T05:19:47;32.03;;;5.57;;
48629;SDS011;34426;52.180;4.462;2023-05-27T05:22:14;23.80;;;5.55;;
48629;SDS011;34426;52.180;4.462;2023-05-27T05:24:39;32.03;;;5.40;;
48629;SDS011;34426;52.180;4.462;2023-05-27T05:27:05;28.38;;;6.00;;
48629;SDS011;34426;52.180;4.462;2023-05-27T05:29:30;26.95;;;6.47;;
48629;SDS011;34426;52.180;4.462;2023-05-27T05:31:56;33.95;;;6.38;;
48629;SDS011;34426;52.180;4.462;2023-05-27T05:34:21;31.75;;;6.70;;
48629;SDS011;34426;52.180;4.462;2023-05-27T05:36:47;36.15;;;6.30;;
48629;SDS011;34426;52.180;4.462;2023-05-27T05:39:14;32.95;;;6.32;;
48629;SDS011;34426;52.180;4.462;2023-05-27T05:41:39;29.00;;;5.65;;
48629;SDS011;34426;52.180;4.462;2023-05-27T05:44:04;29.35;;;5.22;;
48629;SDS011;34426;52.180;4.462;2023-05-27T05:46:30;30.75;;;6.35;;
48629;SDS011;34426;52.180;4.462;2023-05-27T05:48:55;31.10;;;6.40;;
48629;SDS011;34426;52.180;4.462;2023-05-27T05:51:21;33.03;;;5.72;;
48629;SDS011;34426;52.180;4.462;2023-05-27T05:53:46;27.83;;;5.38;;
48629;SDS011;34426;52.180;4.462;2023-05-27T05:56:13;32.10;;;6.28;;
48629;SDS011;34426;52.180;4.462;2023-05-27T05:58:39;29.48;;;6.15;;
48629;SDS011;34426;52.180;4.462;2023-05-27T06:01:04;28.30;;;5.55;;
48629;SDS011;34426;52.180;4.462;2023-05-27T06:03:30;27.75;;;5.93;;
48629;SDS011;34426;52.180;4.462;2023-05-27T06:05:55;31.38;;;5.75;;
48629;SDS011;34426;52.180;4.462;2023-05-27T06:08:21;38.30;;;7.13;;
48629;SDS011;34426;52.180;4.462;2023-05-27T06:10:46;31.77;;;6.50;;
48629;SDS011;34426;52.180;4.462;2023-05-27T06:13:13;24.58;;;5.65;;
48629;SDS011;34426;52.180;4.462;2023-05-27T06:15:39;24.10;;;5.68;;
48629;SDS011;34426;52.180;4.462;2023-05-27T06:18:04;30.80;;;5.53;;
48629;SDS011;34426;52.180;4.462;2023-05-27T06:20:30;35.88;;;6.40;;
48629;SDS011;34426;52.180;4.462;2023-05-27T06:22:55;26.27;;;6.70;;
48629;SDS011;34426;52.180;4.462;2023-05-27T06:25:21;28.17;;;6.03;;
48629;SDS011;34426;52.180;4.462;2023-05-27T06:27:46;33.42;;;5.75;;
48629;SDS011;34426;52.180;4.462;2023-05-27T06:30:13;30.35;;;6.05;;
48629;SDS011;34426;52.180;4.462;2023-05-27T06:32:39;36.63;;;6.35;;
48629;SDS011;34426;52.180;4.462;2023-05-27T06:35:05;32.70;;;6.40;;
48629;SDS011;34426;52.180;4.462;2023-05-27T06:37:30;29.23;;;5.70;;
48629;SDS011;34426;52.180;4.462;2023-05-27T06:39:56;27.40;;;6.22;;
48629;SDS011;34426;52.180;4.462;2023-05-27T06:42:22;31.73;;;6.63;;
48629;SDS011;34426;52.180;4.462;2023-05-27T06:44:47;32.95;;;6.80;;
48629;SDS011;34426;52.180;4.462;2023-05-27T06:47:14;32.97;;;6.20;;
48629;SDS011;34426;52.180;4.462;2023-05-27T06:49:39;32.15;;;6.45;;
48629;SDS011;34426;52.180;4.462;2023-05-27T06:52:05;30.73;;;6.40;;
48629;SDS011;34426;52.180;4.462;2023-05-27T06:54:31;24.30;;;5.70;;
48629;SDS011;34426;52.180;4.462;2023-05-27T06:56:56;31.13;;;7.00;;
48629;SDS011;34426;52.180;4.462;2023-05-27T06:59:22;37.80;;;6.32;;
48629;SDS011;34426;52.180;4.462;2023-05-27T07:01:47;43.38;;;7.60;;
48629;SDS011;34426;52.180;4.462;2023-05-27T07:04:14;29.83;;;6.38;;
48629;SDS011;34426;52.180;4.462;2023-05-27T07:06:40;31.30;;;7.60;;
48629;SDS011;34426;52.180;4.462;2023-05-27T07:09:06;31.65;;;5.75;;
48629;SDS011;34426;52.180;4.462;2023-05-27T07:11:31;28.52;;;6.70;;
48629;SDS011;34426;52.180;4.462;2023-05-27T07:13:57;30.38;;;7.22;;
48629;SDS011;34426;52.180;4.462;2023-05-27T07:16:22;33.28;;;6.05;;
48629;SDS011;34426;52.180;4.462;2023-05-27T07:18:48;29.00;;;6.80;;
48629;SDS011;34426;52.180;4.462;2023-05-27T07:21:15;29.95;;;5.70;;
48629;SDS011;34426;52.180;4.462;2023-05-27T07:23:41;30.45;;;7.25;;
48629;SDS011;34426;52.180;4.462;2023-05-27T07:26:06;28.65;;;7.13;;
48629;SDS011;34426;52.180;4.462;2023-05-27T07:28:31;36.45;;;6.47;;
48629;SDS011;34426;52.180;4.462;2023-05-27T07:30:57;31.98;;;6.13;;
48629;SDS011;34426;52.180;4.462;2023-05-27T07:33:22;32.45;;;7.35;;
48629;SDS011;34426;52.180;4.462;2023-05-27T07:35:48;32.10;;;6.68;;
48629;SDS011;34426;52.180;4.462;2023-05-27T07:38:15;35.50;;;6.25;;
48629;SDS011;34426;52.180;4.462;2023-05-27T07:40:40;29.77;;;6.18;;
48629;SDS011;34426;52.180;4.462;2023-05-27T07:43:06;30.70;;;6.82;;
48629;SDS011;34426;52.180;4.462;2023-05-27T07:45:31;36.20;;;6.45;;
48629;SDS011;34426;52.180;4.462;2023-05-27T07:47:57;47.00;;;7.80;;
48629;SDS011;34426;52.180;4.462;2023-05-27T07:50:22;29.15;;;6.15;;
48629;SDS011;34426;52.180;4.462;2023-05-27T07:52:48;31.67;;;7.03;;
48629;SDS011;34426;52.180;4.462;2023-05-27T07:55:15;28.38;;;6.97;;
48629;SDS011;34426;52.180;4.462;2023-05-27T07:57:40;30.17;;;6.97;;
48629;SDS011;34426;52.180;4.462;2023-05-27T08:00:06;29.40;;;6.95;;
48629;SDS011;34426;52.180;4.462;2023-05-27T08:02:32;31.40;;;6.43;;
48629;SDS011;34426;52.180;4.462;2023-05-27T08:04:58;28.63;;;6.32;;
48629;SDS011;34426;52.180;4.462;2023-05-27T08:07:23;26.80;;;7.13;;
48629;SDS011;34426;52.180;4.462;2023-05-27T08:09:49;27.02;;;6.05;;
48629;SDS011;34426;52.180;4.462;2023-05-27T08:12:15;29.67;;;6.55;;
48629;SDS011;34426;52.180;4.462;2023-05-27T08:14:41;31.48;;;7.43;;
48629;SDS011;34426;52.180;4.462;2023-05-27T08:17:07;37.05;;;7.40;;
48629;SDS011;34426;52.180;4.462;2023-05-27T08:19:32;33.15;;;7.63;;
48629;SDS011;34426;52.180;4.462;2023-05-27T08:21:58;35.13;;;7.57;;
48629;SDS011;34426;52.180;4.462;2023-05-27T08:24:23;29.83;;;7.35;;
48629;SDS011;34426;52.180;4.462;2023-05-27T08:26:49;35.28;;;6.15;;
48629;SDS011;34426;52.180;4.462;2023-05-27T08:29:16;35.30;;;7.30;;
48629;SDS011;34426;52.180;4.462;2023-05-27T08:31:41;35.95;;;7.53;;
48629;SDS011;34426;52.180;4.462;2023-05-27T08:34:07;28.50;;;6.22;;
48629;SDS011;34426;52.180;4.462;2023-05-27T08:36:32;26.48;;;6.03;;
48629;SDS011;34426;52.180;4.462;2023-05-27T08:38:58;30.98;;;6.38;;
48629;SDS011;34426;52.180;4.462;2023-05-27T08:41:24;29.77;;;6.95;;
48629;SDS011;34426;52.180;4.462;2023-05-27T08:43:50;26.30;;;6.00;;
48629;SDS011;34426;52.180;4.462;2023-05-27T08:46:17;28.65;;;6.43;;
48629;SDS011;34426;52.180;4.462;2023-05-27T08:48:43;23.27;;;5.47;;
48629;SDS011;34426;52.180;4.462;2023-05-27T08:51:09;29.42;;;6.50;;
48629;SDS011;34426;52.180;4.462;2023-05-27T08:53:35;31.67;;;8.02;;
48629;SDS011;34426;52.180;4.462;2023-05-27T08:56:00;25.77;;;6.72;;
48629;SDS011;34426;52.180;4.462;2023-05-27T08:58:27;33.65;;;7.80;;
48629;SDS011;34426;52.180;4.462;2023-05-27T09:00:53;31.25;;;6.38;;
48629;SDS011;34426;52.180;4.462;2023-05-27T09:03:20;31.60;;;7.43;;
48629;SDS011;34426;52.180;4.462;2023-05-27T09:05:49;28.88;;;6.13;;
48629;SDS011;34426;52.180;4.462;2023-05-27T09:08:15;31.50;;;6.97;;
48629;SDS011;34426;52.180;4.462;2023-05-27T09:10:41;33.22;;;7.15;;
48629;SDS011;34426;52.180;4.462;2023-05-27T09:13:07;26.63;;;7.28;;
48629;SDS011;34426;52.180;4.462;2023-05-27T09:15:33;27.88;;;6.72;;
48629;SDS011;34426;52.180;4.462;2023-05-27T09:17:59;24.50;;;6.25;;
48629;SDS011;34426;52.180;4.462;2023-05-27T09:20:28;30.35;;;6.07;;
48629;SDS011;34426;52.180;4.462;2023-05-27T09:22:56;24.25;;;5.85;;
48629;SDS011;34426;52.180;4.462;2023-05-27T09:25:23;22.60;;;5.88;;
48629;SDS011;34426;52.180;4.462;2023-05-27T09:27:49;25.42;;;7.07;;
48629;SDS011;34426;52.180;4.462;2023-05-27T09:30:15;23.92;;;6.78;;
48629;SDS011;34426;52.180;4.462;2023-05-27T09:32:43;26.35;;;6.13;;
48629;SDS011;34426;52.180;4.462;2023-05-27T09:35:10;28.75;;;7.20;;
48629;SDS011;34426;52.180;4.462;2023-05-27T09:37:38;26.88;;;6.25;;
48629;SDS011;34426;52.180;4.462;2023-05-27T09:40:07;24.38;;;6.15;;
48629;SDS011;34426;52.180;4.462;2023-05-27T09:42:40;24.23;;;5.97;;
48629;SDS011;34426;52.180;4.462;2023-05-27T09:45:06;32.42;;;7.53;;
48629;SDS011;34426;52.180;4.462;2023-05-27T09:47:33;24.55;;;6.15;;
48629;SDS011;34426;52.180;4.462;2023-05-27T09:49:59;31.08;;;6.93;;
48629;SDS011;34426;52.180;4.462;2023-05-27T09:52:25;29.15;;;7.45;;
48629;SDS011;34426;52.180;4.462;2023-05-27T09:54:52;28.42;;;6.55;;
48629;SDS011;34426;52.180;4.462;2023-05-27T09:57:18;35.22;;;7.28;;
48629;SDS011;34426;52.180;4.462;2023-05-27T09:59:50;34.25;;;6.93;;
48629;SDS011;34426;52.180;4.462;2023-05-27T10:02:17;25.08;;;6.18;;
48629;SDS011;34426;52.180;4.462;2023-05-27T10:04:45;33.72;;;6.72;;
48629;SDS011;34426;52.180;4.462;2023-05-27T10:07:13;27.20;;;6.97;;
48629;SDS011;34426;52.180;4.462;2023-05-27T10:09:40;25.63;;;6.93;;
48629;SDS011;34426;52.180;4.462;2023-05-27T10:12:07;26.85;;;6.95;;
48629;SDS011;34426;52.180;4.462;2023-05-27T10:14:34;25.05;;;5.80;;
48629;SDS011;34426;52.180;4.462;2023-05-27T10:17:00;22.10;;;5.55;;
48629;SDS011;34426;52.180;4.462;2023-05-27T10:19:25;28.95;;;6.38;;
48629;SDS011;34426;52.180;4.462;2023-05-27T10:21:52;37.42;;;7.43;;
48629;SDS011;34426;52.180;4.462;2023-05-27T10:24:18;32.33;;;7.75;;
48629;SDS011;34426;52.180;4.462;2023-05-27T10:26:44;29.95;;;7.18;;
48629;SDS011;34426;52.180;4.462;2023-05-27T10:29:12;25.70;;;6.65;;
48629;SDS011;34426;52.180;4.462;2023-05-27T10:31:45;27.15;;;6.45;;
48629;SDS011;34426;52.180;4.462;2023-05-27T10:34:11;33.30;;;7.22;;
48629;SDS011;34426;52.180;4.462;2023-05-27T10:36:37;26.35;;;6.50;;
48629;SDS011;34426;52.180;4.462;2023-05-27T10:39:04;25.30;;;6.15;;
48629;SDS011;34426;52.180;4.462;2023-05-27T10:41:38;27.23;;;6.50;;
48629;SDS011;34426;52.180;4.462;2023-05-27T10:44:04;23.95;;;6.60;;
48629;SDS011;34426;52.180;4.462;2023-05-27T10:46:38;25.25;;;7.05;;
48629;SDS011;34426;52.180;4.462;2023-05-27T10:49:08;26.52;;;7.18;;
48629;SDS011;34426;52.180;4.462;2023-05-27T10:51:35;24.45;;;6.68;;
48629;SDS011;34426;52.180;4.462;2023-05-27T10:54:02;31.33;;;7.03;;
48629;SDS011;34426;52.180;4.462;2023-05-27T10:56:28;22.88;;;6.80;;
48629;SDS011;34426;52.180;4.462;2023-05-27T10:58:53;24.33;;;7.00;;
48629;SDS011;34426;52.180;4.462;2023-05-27T11:01:21;28.85;;;7.05;;
48629;SDS011;34426;52.180;4.462;2023-05-27T11:03:54;28.77;;;7.35;;
48629;SDS011;34426;52.180;4.462;2023-05-27T11:06:25;26.83;;;6.60;;
48629;SDS011;34426;52.180;4.462;2023-05-27T11:08:52;24.92;;;6.90;;
48629;SDS011;34426;52.180;4.462;2023-05-27T11:11:17;24.42;;;6.63;;
48629;SDS011;34426;52.180;4.462;2023-05-27T11:13:44;21.60;;;6.57;;
48629;SDS011;34426;52.180;4.462;2023-05-27T11:16:10;23.45;;;6.63;;
48629;SDS011;34426;52.180;4.462;2023-05-27T11:18:40;22.33;;;6.07;;
48629;SDS011;34426;52.180;4.462;2023-05-27T11:21:09;23.92;;;6.68;;
48629;SDS011;34426;52.180;4.462;2023-05-27T11:23:38;24.60;;;6.72;;
48629;SDS011;34426;52.180;4.462;2023-05-27T11:26:12;20.55;;;6.88;;
48629;SDS011;34426;52.180;4.462;2023-05-27T11:28:38;27.17;;;6.60;;
48629;SDS011;34426;52.180;4.462;2023-05-27T11:31:11;25.80;;;6.72;;
48629;SDS011;34426;52.180;4.462;2023-05-27T11:33:40;26.00;;;7.00;;
48629;SDS011;34426;52.180;4.462;2023-05-27T11:36:06;30.23;;;6.93;;
48629;SDS011;34426;52.180;4.462;2023-05-27T11:41:22;22.45;;;6.57;;
48629;SDS011;34426;52.180;4.462;2023-05-27T11:43:49;26.60;;;6.80;;
48629;SDS011;34426;52.180;4.462;2023-05-27T11:46:16;24.15;;;6.95;;
48629;SDS011;34426;52.180;4.462;2023-05-27T11:48:42;37.80;;;7.80;;
48629;SDS011;34426;52.180;4.462;2023-05-27T11:51:09;29.73;;;7.28;;
48629;SDS011;34426;52.180;4.462;2023-05-27T11:53:35;25.85;;;6.60;;
48629;SDS011;34426;52.180;4.462;2023-05-27T11:56:04;28.40;;;6.90;;
48629;SDS011;34426;52.180;4.462;2023-05-27T11:58:29;22.95;;;6.40;;
48629;SDS011;34426;52.180;4.462;2023-05-27T12:00:55;28.52;;;6.70;;
48629;SDS011;34426;52.180;4.462;2023-05-27T12:03:20;19.88;;;6.57;;
48629;SDS011;34426;52.180;4.462;2023-05-27T12:05:46;24.40;;;7.20;;
48629;SDS011;34426;52.180;4.462;2023-05-27T12:08:13;26.30;;;6.72;;
48629;SDS011;34426;52.180;4.462;2023-05-27T12:10:38;25.27;;;6.85;;
48629;SDS011;34426;52.180;4.462;2023-05-27T12:13:04;26.10;;;6.30;;
48629;SDS011;34426;52.180;4.462;2023-05-27T12:15:30;25.02;;;7.03;;
48629;SDS011;34426;52.180;4.462;2023-05-27T12:17:56;22.38;;;6.55;;
48629;SDS011;34426;52.180;4.462;2023-05-27T12:20:21;23.90;;;6.70;;
48629;SDS011;34426;52.180;4.462;2023-05-27T12:22:50;29.38;;;7.30;;
48629;SDS011;34426;52.180;4.462;2023-05-27T12:25:17;18.15;;;5.85;;
48629;SDS011;34426;52.180;4.462;2023-05-27T12:27:42;25.38;;;6.50;;
48629;SDS011;34426;52.180;4.462;2023-05-27T12:30:08;22.77;;;6.68;;
48629;SDS011;34426;52.180;4.462;2023-05-27T12:32:34;17.10;;;6.10;;
48629;SDS011;34426;52.180;4.462;2023-05-27T12:35:00;23.13;;;7.07;;
48629;SDS011;34426;52.180;4.462;2023-05-27T12:37:25;24.38;;;6.00;;
48629;SDS011;34426;52.180;4.462;2023-05-27T12:39:51;22.10;;;6.13;;
48629;SDS011;34426;52.180;4.462;2023-05-27T12:42:18;23.90;;;5.53;;
48629;SDS011;34426;52.180;4.462;2023-05-27T12:44:44;22.20;;;6.57;;
48629;SDS011;34426;52.180;4.462;2023-05-27T12:47:09;19.23;;;6.15;;
48629;SDS011;34426;52.180;4.462;2023-05-27T12:49:35;22.38;;;6.07;;
48629;SDS011;34426;52.180;4.462;2023-05-27T12:52:05;20.50;;;5.88;;
48629;SDS011;34426;52.180;4.462;2023-05-27T12:54:31;18.48;;;5.68;;
48629;SDS011;34426;52.180;4.462;2023-05-27T12:56:57;18.13;;;5.25;;
48629;SDS011;34426;52.180;4.462;2023-05-27T12:59:24;20.60;;;5.63;;
48629;SDS011;34426;52.180;4.462;2023-05-27T13:01:49;20.55;;;6.03;;
48629;SDS011;34426;52.180;4.462;2023-05-27T13:04:16;21.77;;;6.15;;
48629;SDS011;34426;52.180;4.462;2023-05-27T13:06:41;19.23;;;5.85;;
48629;SDS011;34426;52.180;4.462;2023-05-27T13:09:07;23.75;;;5.93;;
48629;SDS011;34426;52.180;4.462;2023-05-27T13:11:33;22.60;;;6.30;;
48629;SDS011;34426;52.180;4.462;2023-05-27T13:13:59;21.65;;;6.30;;
48629;SDS011;34426;52.180;4.462;2023-05-27T13:16:29;21.15;;;6.38;;
48629;SDS011;34426;52.180;4.462;2023-05-27T13:18:57;21.90;;;6.40;;
48629;SDS011;34426;52.180;4.462;2023-05-27T13:21:23;20.92;;;6.20;;
48629;SDS011;34426;52.180;4.462;2023-05-27T13:23:48;17.70;;;5.40;;
48629;SDS011;34426;52.180;4.462;2023-05-27T13:26:14;18.75;;;5.65;;
48629;SDS011;34426;52.180;4.462;2023-05-27T13:28:41;19.88;;;6.13;;
48629;SDS011;34426;52.180;4.462;2023-05-27T13:31:06;19.30;;;5.47;;
48629;SDS011;34426;52.180;4.462;2023-05-27T13:33:33;21.27;;;5.72;;
48629;SDS011;34426;52.180;4.462;2023-05-27T13:35:59;27.10;;;5.47;;
48629;SDS011;34426;52.180;4.462;2023-05-27T13:38:25;21.05;;;6.68;;
48629;SDS011;34426;52.180;4.462;2023-05-27T13:40:51;25.63;;;5.75;;
48629;SDS011;34426;52.180;4.462;2023-05-27T13:43:16;17.88;;;5.60;;
48629;SDS011;34426;52.180;4.462;2023-05-27T13:45:42;23.25;;;5.97;;
48629;SDS011;34426;52.180;4.462;2023-05-27T13:48:08;22.92;;;5.90;;
48629;SDS011;34426;52.180;4.462;2023-05-27T13:50:34;17.15;;;5.88;;
48629;SDS011;34426;52.180;4.462;2023-05-27T13:53:00;20.92;;;5.55;;
48629;SDS011;34426;52.180;4.462;2023-05-27T13:55:26;23.90;;;6.00;;
48629;SDS011;34426;52.180;4.462;2023-05-27T13:57:51;20.42;;;5.80;;
48629;SDS011;34426;52.180;4.462;2023-05-27T14:00:17;20.00;;;5.40;;
48629;SDS011;34426;52.180;4.462;2023-05-27T14:02:42;16.00;;;5.53;;
48629;SDS011;34426;52.180;4.462;2023-05-27T14:05:09;19.55;;;6.05;;
48629;SDS011;34426;52.180;4.462;2023-05-27T14:07:40;20.60;;;5.47;;
48629;SDS011;34426;52.180;4.462;2023-05-27T14:10:06;21.13;;;5.43;;
48629;SDS011;34426;52.180;4.462;2023-05-27T14:12:32;20.00;;;6.07;;
48629;SDS011;34426;52.180;4.462;2023-05-27T14:14:58;16.90;;;5.40;;
48629;SDS011;34426;52.180;4.462;2023-05-27T14:17:23;19.25;;;6.03;;
48629;SDS011;34426;52.180;4.462;2023-05-27T14:19:48;19.17;;;5.88;;
48629;SDS011;34426;52.180;4.462;2023-05-27T14:22:14;17.30;;;5.75;;
48629;SDS011;34426;52.180;4.462;2023-05-27T14:24:41;20.33;;;5.72;;
48629;SDS011;34426;52.180;4.462;2023-05-27T14:27:07;15.52;;;5.63;;
48629;SDS011;34426;52.180;4.462;2023-05-27T14:29:33;20.95;;;5.95;;